No se requiere ningun cuidado especial respecto a la situación metereológica.   -   No hay avisos

Informes METAR

 

KSJC - San Jose, California, USA
Distancia de la estación: NE 14km
Actualización: 28/07/2021 18:53
Muy nuboso
Muy nuboso
 Viento de calm
Viento: Calma
Temperatura: 21°C
Rocío: 14°C
Humedad: 64%
Barómetro: 1017.3 hPa
Nubes: Muy nuboso
Visibilidad: 16 km
Detalles de las nubes: Poco nuboso 305 m
Parcialmente nuboso 3048 m
Muy nuboso 5486 m
2021/07/28 16:53 KSJC 281653Z 00000KT 10SM FEW010 SCT100 BKN180 21/14 A3004 RMK AO2 SLP170 T02060139
KNUQ - Moffett Nas/Mtn, California, USA
Distancia de la estación: N 14km
Actualización: 28/07/2021 18:55
Despejado
Despejado
 Viento de N
Viento: N 9 km/h
Temperatura: 20°C
Rocío: 15°C
Humedad: 73%
Barómetro: 1017.3 hPa
Nubes: Despejado
Visibilidad: 16 km
2021/07/28 16:55 KNUQ 281655Z AUTO 35005KT 10SM CLR 20/15 A3004 RMK AO2
 
KPAO - Palo Alto, California, USA
Distancia de la estación: NNO 23km
Actualización: 28/07/2021 18:47
Parcialmente nuboso
Parcialmente nuboso
 Viento de calm
Viento: Calma
Temperatura: 18°C
Rocío: 14°C
Humedad: 78%
Barómetro: 1017.6 hPa
Nubes: Parcialmente nuboso
Visibilidad: 16 km
Detalles de las nubes: Parcialmente nuboso 274 m
2021/07/28 16:47 KPAO 281647Z 00000KT 10SM SCT009 18/14 A3005
KRHV - San Jose/Reid, California, USA
Distancia de la estación: ENE 19km
Actualización: 28/07/2021 18:50
Parcialmente nuboso
Parcialmente nuboso
 Viento de calm
Viento: Calma
Temperatura: 21°C
Rocío: 14°C
Humedad: 64%
Barómetro: 1017.3 hPa
Nubes: Parcialmente nuboso
Visibilidad: 16 km
Detalles de las nubes: Parcialmente nuboso 3353 m
2021/07/28 16:50 KRHV 281650Z 00000KT 10SM SCT110 21/14 A3004
 
KOAK - Oakland, California, USA
Distancia de la estación: NNO 50km
Actualización: 28/07/2021 18:53
Muy nuboso
Muy nuboso
 Viento de O
Viento: O 9 km/h
Temperatura: 18°C
Rocío: 13°C
Humedad: 73%
Barómetro: 1017.6 hPa
Nubes: Muy nuboso
Visibilidad: 16 km
Detalles de las nubes: Poco nuboso 244 m
Muy nuboso 6096 m
2021/07/28 16:53 KOAK 281653Z 28005KT 10SM FEW008 BKN200 18/13 A3005 RMK AO2 SLP174 T01780133
KSQL - San Carlos Airpo, California, USA
Distancia de la estación: NO 34km
Actualización: 28/07/2021 17:52
NOT Current
Poco nuboso
Poco nuboso
 Viento de calm
Viento: Calma
Temperatura: 18°C
Rocío: 14°C
Humedad: 78%
Barómetro: 1017.9 hPa
Nubes: Poco nuboso
Visibilidad: 16 km
Detalles de las nubes: Poco nuboso 305 m
2021/07/28 15:52 KSQL 281552Z 00000KT 10SM FEW010 18/14 A3006
 
KSFO - San Francisco, California, USA
Distancia de la estación: NO 49km
Actualización: 28/07/2021 18:56
Muy nuboso
Muy nuboso
 Viento de NE
Viento: NE 7 km/h
Temperatura: 18°C
Rocío: 13°C
Humedad: 73%
Barómetro: 1017.3 hPa
Nubes: Muy nuboso
Visibilidad: 16 km
Detalles de las nubes: Poco nuboso 183 m
Parcialmente nuboso 4267 m
Muy nuboso 6096 m
2021/07/28 16:56 KSFO 281656Z 05004KT 10SM FEW006 SCT140 BKN200 18/13 A3004 RMK A02 SLP173 T01830133
KE16 - San Martin, California, USA
Distancia de la estación: ESE 43km
Actualización: 28/07/2021 18:55
Despejado
Despejado
 Viento de calm
Viento: Calma
Temperatura: 20°C
Rocío: 13°C
Humedad: 64%
Barómetro: 1017.9 hPa
Nubes: Despejado
Visibilidad: 16 km
2021/07/28 16:55 KE16 281655Z AUTO 00000KT 10SM CLR 20/13 A3006 RMK AO2 PWINO PNO
 
KWVI - Watsonville, California, USA
Distancia de la estación: SSE 44km
Actualización: 28/07/2021 18:53
Cubierto
Cubierto
 Viento de ONO
Viento: ONO 6 km/h
Temperatura: 17°C
Rocío: 13°C
Humedad: 77%
Barómetro: 1018.3 hPa
Nubes: Cubierto
Visibilidad: 16 km
Detalles de las nubes: Cubierto 183 m
2021/07/28 16:53 KWVI 281653Z AUTO 30003KT 10SM OVC006 17/13 A3007 RMK AO2 CIG 004V009 SLP180 T01670133
KHAF - Half Moon Bay, California, USA
Distancia de la estación: ONO 50km
Actualización: 09/07/2021 16:35
NOT Current
Lluvia débil, Despejado
Lluvia débil, Despejado
 
Temperatura: 13°C
Rocío: 12°C
Humedad: 94%
Barómetro: 1012.9 hPa
Resumen: Lluvia débil
Nubes: Despejado
Visibilidad: 6 km
2021/07/09 14:35 KHAF 091435Z AUTO 4SM -RA CLR 13/12 A2991 RMK AO2
 
KHWD - Hayward, California, USA
Distancia de la estación: N 44km
Actualización: 28/07/2021 18:54
Despejado
Despejado
 Viento de O
Viento: O 7 km/h
Temperatura: 19°C
Rocío: 14°C
Humedad: 73%
Barómetro: 1017.3 hPa
Nubes: Despejado
Visibilidad: 16 km
2021/07/28 16:54 KHWD 281654Z 27004KT 10SM CLR 19/14 A3004 RMK AO2 SLP181 T01890139
KLVK - Livermore, California, USA
Distancia de la estación: NNE 51km
Actualización: 28/07/2021 18:53
Despejado
Despejado
 Viento de SSO
Viento: SSO 7 km/h
Temperatura: 23°C
Rocío: 11°C
Humedad: 47%
Barómetro: 1016.6 hPa
Nubes: Despejado
Visibilidad: 16 km
2021/07/28 16:53 KLVK 281653Z 21004KT 10SM CLR 23/11 A3002 RMK AO2 SLP163 T02330111